sensor_id;sensor_type;location;lat;lon;timestamp;pressure;altitude;pressure_sealevel;temperature;humidity
69624;BME280;56843;52.020;5.670;2023-01-27T00:00:42;102322.66;;;11.35;63.65
69624;BME280;56843;52.020;5.670;2023-01-27T00:02:13;102314.91;;;11.34;63.60
69624;BME280;56843;52.020;5.670;2023-01-27T00:03:44;102318.88;;;11.36;63.38
69624;BME280;56843;52.020;5.670;2023-01-27T00:05:15;102322.66;;;11.35;63.34
69624;BME280;56843;52.020;5.670;2023-01-27T00:06:45;102317.31;;;11.35;63.53
69624;BME280;56843;52.020;5.670;2023-01-27T00:08:16;102315.41;;;11.36;63.27
69624;BME280;56843;52.020;5.670;2023-01-27T00:09:47;102322.66;;;11.35;63.37
69624;BME280;56843;52.020;5.670;2023-01-27T00:11:17;102317.31;;;11.35;63.71
69624;BME280;56843;52.020;5.670;2023-01-27T00:13:13;102313.31;;;11.33;63.44
69624;BME280;56843;52.020;5.670;2023-01-27T00:14:56;102312.53;;;11.32;63.82
69624;BME280;56843;52.020;5.670;2023-01-27T00:16:27;102316.00;;;11.33;63.47
69624;BME280;56843;52.020;5.670;2023-01-27T00:17:58;102313.03;;;11.34;63.46
69624;BME280;56843;52.020;5.670;2023-01-27T00:19:29;102321.03;;;11.34;63.88
69624;BME280;56843;52.020;5.670;2023-01-27T00:20:59;102317.56;;;11.34;63.76
69624;BME280;56843;52.020;5.670;2023-01-27T00:22:48;102317.06;;;11.32;63.61
69624;BME280;56843;52.020;5.670;2023-01-27T00:24:37;102319.75;;;11.32;63.64
69624;BME280;56843;52.020;5.670;2023-01-27T00:26:10;102317.88;;;11.32;63.52
69624;BME280;56843;52.020;5.670;2023-01-27T00:27:43;102318.66;;;11.33;63.81
69624;BME280;56843;52.020;5.670;2023-01-27T00:29:13;102319.47;;;11.33;63.92
69624;BME280;56843;52.020;5.670;2023-01-27T00:30:44;102311.72;;;11.32;63.62
69624;BME280;56843;52.020;5.670;2023-01-27T00:32:14;102313.31;;;11.33;63.73
69624;BME280;56843;52.020;5.670;2023-01-27T00:34:04;102309.84;;;11.32;63.70
69624;BME280;56843;52.020;5.670;2023-01-27T00:35:42;102309.03;;;11.32;63.78
69624;BME280;56843;52.020;5.670;2023-01-27T00:37:13;102308.78;;;11.33;64.01
69624;BME280;56843;52.020;5.670;2023-01-27T00:38:43;102317.56;;;11.34;63.78
69624;BME280;56843;52.020;5.670;2023-01-27T00:40:15;102323.72;;;11.34;63.98
69624;BME280;56843;52.020;5.670;2023-01-27T00:41:46;102322.91;;;11.34;63.78
69624;BME280;56843;52.020;5.670;2023-01-27T00:43:16;102326.09;;;11.36;64.09
69624;BME280;56843;52.020;5.670;2023-01-27T00:44:46;102321.84;;;11.35;63.70
69624;BME280;56843;52.020;5.670;2023-01-27T00:46:35;102322.41;;;11.32;63.90
69624;BME280;56843;52.020;5.670;2023-01-27T00:48:06;102322.16;;;11.33;63.95
69624;BME280;56843;52.020;5.670;2023-01-27T00:49:36;102321.84;;;11.35;63.88
69624;BME280;56843;52.020;5.670;2023-01-27T00:51:07;102317.88;;;11.32;63.97
69624;BME280;56843;52.020;5.670;2023-01-27T00:52:37;102325.59;;;11.34;63.85
69624;BME280;56843;52.020;5.670;2023-01-27T00:54:09;102316.00;;;11.33;63.84
69624;BME280;56843;52.020;5.670;2023-01-27T00:55:40;102319.19;;;11.35;63.90
69624;BME280;56843;52.020;5.670;2023-01-27T00:57:10;102335.22;;;11.35;64.28
69624;BME280;56843;52.020;5.670;2023-01-27T00:58:41;102330.69;;;11.35;64.01
69624;BME280;56843;52.020;5.670;2023-01-27T01:00:12;102334.13;;;11.36;64.28
69624;BME280;56843;52.020;5.670;2023-01-27T01:01:43;102335.22;;;11.35;64.42
69624;BME280;56843;52.020;5.670;2023-01-27T01:03:14;102326.09;;;11.36;64.04
69624;BME280;56843;52.020;5.670;2023-01-27T01:04:44;102339.47;;;11.36;64.25
69624;BME280;56843;52.020;5.670;2023-01-27T01:06:16;102326.91;;;11.36;63.92
69624;BME280;56843;52.020;5.670;2023-01-27T01:07:46;102318.06;;;11.36;64.41
69624;BME280;56843;52.020;5.670;2023-01-27T01:09:17;102317.81;;;11.37;64.12
69624;BME280;56843;52.020;5.670;2023-01-27T01:10:47;102321.56;;;11.36;64.14
69624;BME280;56843;52.020;5.670;2023-01-27T01:12:18;102323.41;;;11.36;64.34
69624;BME280;56843;52.020;5.670;2023-01-27T01:13:48;102311.94;;;11.35;64.23
69624;BME280;56843;52.020;5.670;2023-01-27T01:15:19;102325.81;;;11.37;64.22
69624;BME280;56843;52.020;5.670;2023-01-27T01:16:49;102314.31;;;11.37;64.41
69624;BME280;56843;52.020;5.670;2023-01-27T01:18:20;102330.38;;;11.37;64.27
69624;BME280;56843;52.020;5.670;2023-01-27T01:19:51;102329.56;;;11.36;64.36
69624;BME280;56843;52.020;5.670;2023-01-27T01:21:22;102341.56;;;11.39;64.55
69624;BME280;56843;52.020;5.670;2023-01-27T01:22:52;102331.19;;;11.37;64.53
69624;BME280;56843;52.020;5.670;2023-01-27T01:24:23;102338.09;;;11.38;64.42
69624;BME280;56843;52.020;5.670;2023-01-27T01:25:55;102337.31;;;11.38;64.72
69624;BME280;56843;52.020;5.670;2023-01-27T01:27:26;102331.75;;;11.34;64.51
69624;BME280;56843;52.020;5.670;2023-01-27T01:28:58;102338.41;;;11.37;64.51
69624;BME280;56843;52.020;5.670;2023-01-27T01:30:33;102338.91;;;11.39;64.30
69624;BME280;56843;52.020;5.670;2023-01-27T01:32:03;102344.25;;;11.39;64.68
69624;BME280;56843;52.020;5.670;2023-01-27T01:33:35;102339.47;;;11.36;64.42
69624;BME280;56843;52.020;5.670;2023-01-27T01:35:06;102346.94;;;11.39;64.63
69624;BME280;56843;52.020;5.670;2023-01-27T01:36:37;102336.53;;;11.37;64.78
69624;BME280;56843;52.020;5.670;2023-01-27T01:38:08;102351.22;;;11.40;64.60
69624;BME280;56843;52.020;5.670;2023-01-27T01:39:39;102351.22;;;11.40;64.63
69624;BME280;56843;52.020;5.670;2023-01-27T01:41:16;102350.41;;;11.39;64.81
69624;BME280;56843;52.020;5.670;2023-01-27T01:44:23;102360.00;;;11.40;64.82
69624;BME280;56843;52.020;5.670;2023-01-27T01:45:59;102353.88;;;11.40;64.44
69624;BME280;56843;52.020;5.670;2023-01-27T01:47:31;102351.22;;;11.40;64.87
69624;BME280;56843;52.020;5.670;2023-01-27T01:49:02;102358.13;;;11.41;64.83
69624;BME280;56843;52.020;5.670;2023-01-27T01:50:33;102355.47;;;11.41;64.55
69624;BME280;56843;52.020;5.670;2023-01-27T01:52:17;102355.47;;;11.41;64.70
69624;BME280;56843;52.020;5.670;2023-01-27T01:54:18;102350.91;;;11.41;64.69
69624;BME280;56843;52.020;5.670;2023-01-27T01:55:47;102356.03;;;11.38;65.08
69624;BME280;56843;52.020;5.670;2023-01-27T01:57:27;102360.31;;;11.39;64.70
69624;BME280;56843;52.020;5.670;2023-01-27T01:59:06;102351.47;;;11.38;64.58
69624;BME280;56843;52.020;5.670;2023-01-27T02:02:33;102351.78;;;11.37;64.67
69624;BME280;56843;52.020;5.670;2023-01-27T02:04:09;102349.09;;;11.37;64.56
69624;BME280;56843;52.020;5.670;2023-01-27T02:05:46;102355.53;;;11.36;64.52
69624;BME280;56843;52.020;5.670;2023-01-27T02:07:32;102347.72;;;11.39;64.52
69624;BME280;56843;52.020;5.670;2023-01-27T02:09:04;102357.13;;;11.37;64.76
69624;BME280;56843;52.020;5.670;2023-01-27T02:10:34;102355.25;;;11.37;64.88
69624;BME280;56843;52.020;5.670;2023-01-27T02:12:05;102341.88;;;11.37;64.94
69624;BME280;56843;52.020;5.670;2023-01-27T02:13:37;102348.81;;;11.38;64.89
69624;BME280;56843;52.020;5.670;2023-01-27T02:15:09;102348.00;;;11.38;64.81
69624;BME280;56843;52.020;5.670;2023-01-27T02:16:39;102356.03;;;11.38;64.53
69624;BME280;56843;52.020;5.670;2023-01-27T02:18:10;102362.97;;;11.39;64.88
69624;BME280;56843;52.020;5.670;2023-01-27T02:21:23;102351.78;;;11.37;64.68
69624;BME280;56843;52.020;5.670;2023-01-27T02:24:42;102364.84;;;11.38;64.52
69624;BME280;56843;52.020;5.670;2023-01-27T02:26:27;102367.81;;;11.37;64.71
69624;BME280;56843;52.020;5.670;2023-01-27T02:28:00;102368.13;;;11.35;64.59
69624;BME280;56843;52.020;5.670;2023-01-27T02:29:31;102368.13;;;11.35;64.69
69624;BME280;56843;52.020;5.670;2023-01-27T02:31:01;102380.91;;;11.38;64.98
69624;BME280;56843;52.020;5.670;2023-01-27T02:32:32;102369.41;;;11.38;64.93
69624;BME280;56843;52.020;5.670;2023-01-27T02:34:18;102360.31;;;11.39;64.73
69624;BME280;56843;52.020;5.670;2023-01-27T02:37:33;102370.78;;;11.35;64.85
69624;BME280;56843;52.020;5.670;2023-01-27T02:39:06;102367.03;;;11.36;64.67
69624;BME280;56843;52.020;5.670;2023-01-27T02:40:38;102360.88;;;11.36;64.93
69624;BME280;56843;52.020;5.670;2023-01-27T02:42:11;102367.81;;;11.37;64.77
69624;BME280;56843;52.020;5.670;2023-01-27T02:43:43;102355.53;;;11.36;65.01
69624;BME280;56843;52.020;5.670;2023-01-27T02:45:14;102373.97;;;11.37;64.96
69624;BME280;56843;52.020;5.670;2023-01-27T02:46:44;102367.81;;;11.37;64.85
69624;BME280;56843;52.020;5.670;2023-01-27T02:48:15;102368.63;;;11.37;64.76
69624;BME280;56843;52.020;5.670;2023-01-27T02:49:45;102368.13;;;11.35;64.97
69624;BME280;56843;52.020;5.670;2023-01-27T02:51:16;102384.69;;;11.37;65.04
69624;BME280;56843;52.020;5.670;2023-01-27T02:52:47;102380.41;;;11.36;65.02
69624;BME280;56843;52.020;5.670;2023-01-27T02:54:19;102373.97;;;11.37;64.99
69624;BME280;56843;52.020;5.670;2023-01-27T02:55:49;102373.19;;;11.37;64.77
69624;BME280;56843;52.020;5.670;2023-01-27T02:57:20;102372.06;;;11.38;65.20
69624;BME280;56843;52.020;5.670;2023-01-27T02:59:13;102374.25;;;11.36;65.05
69624;BME280;56843;52.020;5.670;2023-01-27T03:00:45;102376.66;;;11.37;65.13
69624;BME280;56843;52.020;5.670;2023-01-27T03:02:16;102379.31;;;11.37;65.04
69624;BME280;56843;52.020;5.670;2023-01-27T03:03:52;102373.47;;;11.35;65.38
69624;BME280;56843;52.020;5.670;2023-01-27T03:05:23;102381.19;;;11.37;65.27
69624;BME280;56843;52.020;5.670;2023-01-27T03:06:54;102379.03;;;11.39;65.27
69624;BME280;56843;52.020;5.670;2023-01-27T03:08:25;102376.34;;;11.39;65.37
69624;BME280;56843;52.020;5.670;2023-01-27T03:09:55;102383.56;;;11.38;65.45
69624;BME280;56843;52.020;5.670;2023-01-27T03:11:26;102381.69;;;11.39;65.53
69624;BME280;56843;52.020;5.670;2023-01-27T03:13:15;102388.13;;;11.38;65.47
69624;BME280;56843;52.020;5.670;2023-01-27T03:14:50;102393.19;;;11.39;65.37
69624;BME280;56843;52.020;5.670;2023-01-27T03:16:39;102396.44;;;11.36;65.57
69624;BME280;56843;52.020;5.670;2023-01-27T03:18:28;102391.41;;;11.35;65.42
69624;BME280;56843;52.020;5.670;2023-01-27T03:19:59;102389.22;;;11.37;65.33
69624;BME280;56843;52.020;5.670;2023-01-27T03:21:29;102392.69;;;11.37;65.38
69624;BME280;56843;52.020;5.670;2023-01-27T03:23:00;102393.47;;;11.38;65.64
69624;BME280;56843;52.020;5.670;2023-01-27T03:24:31;102389.22;;;11.37;65.73
69624;BME280;56843;52.020;5.670;2023-01-27T03:26:07;102389.72;;;11.39;65.82
69624;BME280;56843;52.020;5.670;2023-01-27T03:27:40;102393.47;;;11.38;65.85
69624;BME280;56843;52.020;5.670;2023-01-27T03:29:22;102398.31;;;11.36;65.55
69624;BME280;56843;52.020;5.670;2023-01-27T03:31:11;102397.81;;;11.34;65.50
69624;BME280;56843;52.020;5.670;2023-01-27T03:33:04;102396.25;;;11.33;65.80
69624;BME280;56843;52.020;5.670;2023-01-27T03:34:51;102401.59;;;11.33;65.70
69624;BME280;56843;52.020;5.670;2023-01-27T03:36:32;102404.25;;;11.33;65.59
69624;BME280;56843;52.020;5.670;2023-01-27T03:38:21;102399.97;;;11.32;65.87
69624;BME280;56843;52.020;5.670;2023-01-27T03:40:11;102405.06;;;11.33;65.62
69624;BME280;56843;52.020;5.670;2023-01-27T03:42:01;102405.34;;;11.32;65.82
69624;BME280;56843;52.020;5.670;2023-01-27T03:43:50;102401.59;;;11.33;65.61
69624;BME280;56843;52.020;5.670;2023-01-27T03:45:43;102397.31;;;11.32;65.92
69624;BME280;56843;52.020;5.670;2023-01-27T03:47:33;102393.06;;;11.31;65.81
69624;BME280;56843;52.020;5.670;2023-01-27T03:49:03;102398.09;;;11.32;65.62
69624;BME280;56843;52.020;5.670;2023-01-27T03:50:34;102390.59;;;11.34;65.62
69624;BME280;56843;52.020;5.670;2023-01-27T03:52:11;102390.88;;;11.33;65.98
69624;BME280;56843;52.020;5.670;2023-01-27T03:53:41;102394.06;;;11.35;65.86
69624;BME280;56843;52.020;5.670;2023-01-27T03:55:12;102395.94;;;11.34;65.93
69624;BME280;56843;52.020;5.670;2023-01-27T03:56:42;102395.13;;;11.34;66.12
69624;BME280;56843;52.020;5.670;2023-01-27T03:58:17;102397.53;;;11.35;65.95
69624;BME280;56843;52.020;5.670;2023-01-27T03:59:49;102393.25;;;11.34;65.60
69624;BME280;56843;52.020;5.670;2023-01-27T04:01:21;102390.28;;;11.36;65.80
69624;BME280;56843;52.020;5.670;2023-01-27T04:02:52;102397.53;;;11.35;65.99
69624;BME280;56843;52.020;5.670;2023-01-27T04:04:41;102394.38;;;11.33;65.95
69624;BME280;56843;52.020;5.670;2023-01-27T04:06:34;102395.94;;;11.34;65.90
69624;BME280;56843;52.020;5.670;2023-01-27T04:08:29;102393.56;;;11.33;65.96
69624;BME280;56843;52.020;5.670;2023-01-27T04:10:00;102395.13;;;11.34;65.89
69624;BME280;56843;52.020;5.670;2023-01-27T04:11:31;102395.13;;;11.34;65.75
69624;BME280;56843;52.020;5.670;2023-01-27T04:13:21;102397.81;;;11.34;66.03
69624;BME280;56843;52.020;5.670;2023-01-27T04:14:52;102406.63;;;11.34;65.86
69624;BME280;56843;52.020;5.670;2023-01-27T04:16:22;102399.41;;;11.35;65.74
69624;BME280;56843;52.020;5.670;2023-01-27T04:17:58;102396.75;;;11.35;65.62
69624;BME280;56843;52.020;5.670;2023-01-27T04:19:28;102396.44;;;11.36;65.77
69624;BME280;56843;52.020;5.670;2023-01-27T04:20:59;102399.91;;;11.37;65.85
69624;BME280;56843;52.020;5.670;2023-01-27T04:22:30;102406.84;;;11.38;65.86
69624;BME280;56843;52.020;5.670;2023-01-27T04:24:00;102406.06;;;11.37;65.67
69624;BME280;56843;52.020;5.670;2023-01-27T04:25:31;102402.28;;;11.38;65.81
69624;BME280;56843;52.020;5.670;2023-01-27T04:27:07;102406.84;;;11.38;65.83
69624;BME280;56843;52.020;5.670;2023-01-27T04:28:37;102415.69;;;11.38;65.48
69624;BME280;56843;52.020;5.670;2023-01-27T04:30:08;102409.53;;;11.38;65.86
69624;BME280;56843;52.020;5.670;2023-01-27T04:31:39;102410.31;;;11.38;66.06
69624;BME280;56843;52.020;5.670;2023-01-27T04:33:10;102418.09;;;11.40;65.83
69624;BME280;56843;52.020;5.670;2023-01-27T04:34:44;102416.47;;;11.39;66.14
69624;BME280;56843;52.020;5.670;2023-01-27T04:36:15;102416.47;;;11.39;65.70
69624;BME280;56843;52.020;5.670;2023-01-27T04:37:46;102416.19;;;11.40;65.98
69624;BME280;56843;52.020;5.670;2023-01-27T04:39:16;102416.97;;;11.41;65.55
69624;BME280;56843;52.020;5.670;2023-01-27T04:40:48;102420.75;;;11.40;65.83
69624;BME280;56843;52.020;5.670;2023-01-27T04:42:18;102416.19;;;11.40;65.64
69624;BME280;56843;52.020;5.670;2023-01-27T04:43:49;102421.53;;;11.40;65.83
69624;BME280;56843;52.020;5.670;2023-01-27T04:45:20;102406.28;;;11.41;65.68
69624;BME280;56843;52.020;5.670;2023-01-27T04:46:50;102414.31;;;11.41;65.88
69624;BME280;56843;52.020;5.670;2023-01-27T04:48:21;102421.53;;;11.40;65.80
69624;BME280;56843;52.020;5.670;2023-01-27T04:49:51;102421.25;;;11.42;65.88
69624;BME280;56843;52.020;5.670;2023-01-27T04:51:22;102416.97;;;11.41;65.76
69624;BME280;56843;52.020;5.670;2023-01-27T04:52:53;102417.47;;;11.43;65.66
69624;BME280;56843;52.020;5.670;2023-01-27T04:54:23;102429.28;;;11.42;65.75
69624;BME280;56843;52.020;5.670;2023-01-27T04:56:03;102418.59;;;11.42;65.51
69624;BME280;56843;52.020;5.670;2023-01-27T04:57:34;102422.34;;;11.41;65.80
69624;BME280;56843;52.020;5.670;2023-01-27T04:59:10;102431.97;;;11.42;65.38
69624;BME280;56843;52.020;5.670;2023-01-27T05:00:42;102425.00;;;11.41;65.60
69624;BME280;56843;52.020;5.670;2023-01-27T05:02:12;102437.56;;;11.40;65.71
69624;BME280;56843;52.020;5.670;2023-01-27T05:03:42;102439.47;;;11.40;65.50
69624;BME280;56843;52.020;5.670;2023-01-27T05:05:13;102423.94;;;11.42;65.48
69624;BME280;56843;52.020;5.670;2023-01-27T05:06:44;102432.22;;;11.40;65.31
69624;BME280;56843;52.020;5.670;2023-01-27T05:08:14;102427.69;;;11.41;65.58
69624;BME280;56843;52.020;5.670;2023-01-27T05:09:46;102435.41;;;11.42;65.78
69624;BME280;56843;52.020;5.670;2023-01-27T05:11:17;102435.41;;;11.42;65.79
69624;BME280;56843;52.020;5.670;2023-01-27T05:12:48;102425.50;;;11.43;65.75
69624;BME280;56843;52.020;5.670;2023-01-27T05:14:18;102429.28;;;11.42;65.65
69624;BME280;56843;52.020;5.670;2023-01-27T05:15:49;102433.84;;;11.41;65.36
69624;BME280;56843;52.020;5.670;2023-01-27T05:17:19;102430.06;;;11.42;65.61
69624;BME280;56843;52.020;5.670;2023-01-27T05:18:51;102423.94;;;11.42;65.66
69624;BME280;56843;52.020;5.670;2023-01-27T05:20:22;102428.19;;;11.43;65.44
69624;BME280;56843;52.020;5.670;2023-01-27T05:21:52;102425.56;;;11.38;65.62
69624;BME280;56843;52.020;5.670;2023-01-27T05:23:23;102429.28;;;11.42;65.89
69624;BME280;56843;52.020;5.670;2023-01-27T05:25:05;102433.84;;;11.41;65.67
69624;BME280;56843;52.020;5.670;2023-01-27T05:26:36;102433.84;;;11.41;65.60
69624;BME280;56843;52.020;5.670;2023-01-27T05:28:06;102427.69;;;11.41;65.69
69624;BME280;56843;52.020;5.670;2023-01-27T05:29:37;102430.34;;;11.41;65.73
69624;BME280;56843;52.020;5.670;2023-01-27T05:31:10;102430.88;;;11.43;65.83
69624;BME280;56843;52.020;5.670;2023-01-27T05:32:41;102436.50;;;11.41;65.54
69624;BME280;56843;52.020;5.670;2023-01-27T05:34:11;102434.63;;;11.42;65.88
69624;BME280;56843;52.020;5.670;2023-01-27T05:35:42;102442.66;;;11.42;65.89
69624;BME280;56843;52.020;5.670;2023-01-27T05:37:12;102441.56;;;11.43;65.68
69624;BME280;56843;52.020;5.670;2023-01-27T05:38:43;102448.00;;;11.42;65.56
69624;BME280;56843;52.020;5.670;2023-01-27T05:40:14;102442.94;;;11.40;65.42
69624;BME280;56843;52.020;5.670;2023-01-27T05:41:44;102443.72;;;11.41;65.44
69624;BME280;56843;52.020;5.670;2023-01-27T05:43:15;102445.59;;;11.40;65.08
69624;BME280;56843;52.020;5.670;2023-01-27T05:44:45;102447.50;;;11.40;65.20
69624;BME280;56843;52.020;5.670;2023-01-27T05:46:18;102456.59;;;11.39;65.17
69624;BME280;56843;52.020;5.670;2023-01-27T05:47:49;102447.78;;;11.38;65.25
69624;BME280;56843;52.020;5.670;2023-01-27T05:49:20;102457.66;;;11.38;64.96
69624;BME280;56843;52.020;5.670;2023-01-27T05:50:56;102463.81;;;11.38;65.11
69624;BME280;56843;52.020;5.670;2023-01-27T05:52:26;102454.50;;;11.36;64.97
69624;BME280;56843;52.020;5.670;2023-01-27T05:53:57;102457.47;;;11.34;64.97
69624;BME280;56843;52.020;5.670;2023-01-27T05:55:27;102456.66;;;11.34;64.88
69624;BME280;56843;52.020;5.670;2023-01-27T05:56:57;102457.75;;;11.33;65.11
69624;BME280;56843;52.020;5.670;2023-01-27T05:58:28;102457.75;;;11.33;64.79
69624;BME280;56843;52.020;5.670;2023-01-27T05:59:59;102456.16;;;11.32;65.19
69624;BME280;56843;52.020;5.670;2023-01-27T06:01:32;102461.50;;;11.32;65.19
69624;BME280;56843;52.020;5.670;2023-01-27T06:03:03;102467.94;;;11.31;65.09
69624;BME280;56843;52.020;5.670;2023-01-27T06:04:33;102477.53;;;11.32;65.18
69624;BME280;56843;52.020;5.670;2023-01-27T06:06:04;102468.72;;;11.31;65.02
69624;BME280;56843;52.020;5.670;2023-01-27T06:07:36;102470.31;;;11.32;65.10
69624;BME280;56843;52.020;5.670;2023-01-27T06:09:06;102469.53;;;11.32;65.40
69624;BME280;56843;52.020;5.670;2023-01-27T06:10:37;102469.53;;;11.32;65.15
69624;BME280;56843;52.020;5.670;2023-01-27T06:12:07;102468.44;;;11.33;65.32
69624;BME280;56843;52.020;5.670;2023-01-27T06:13:38;102473.00;;;11.32;65.34
69624;BME280;56843;52.020;5.670;2023-01-27T06:15:10;102480.72;;;11.34;65.53
69624;BME280;56843;52.020;5.670;2023-01-27T06:16:40;102477.53;;;11.32;65.29
69624;BME280;56843;52.020;5.670;2023-01-27T06:18:13;102487.19;;;11.33;65.10
69624;BME280;56843;52.020;5.670;2023-01-27T06:19:44;102475.69;;;11.32;65.38
69624;BME280;56843;52.020;5.670;2023-01-27T06:21:15;102492.22;;;11.34;65.14
69624;BME280;56843;52.020;5.670;2023-01-27T06:22:46;102490.66;;;11.33;65.28
69624;BME280;56843;52.020;5.670;2023-01-27T06:24:19;102479.16;;;11.33;65.38
69624;BME280;56843;52.020;5.670;2023-01-27T06:25:50;102491.44;;;11.34;64.99
69624;BME280;56843;52.020;5.670;2023-01-27T06:27:21;102482.09;;;11.31;65.35
69624;BME280;56843;52.020;5.670;2023-01-27T06:28:51;102486.66;;;11.31;65.10
69624;BME280;56843;52.020;5.670;2023-01-27T06:30:23;102487.22;;;11.28;65.10
69624;BME280;56843;52.020;5.670;2023-01-27T06:31:53;102489.41;;;11.26;65.25
69624;BME280;56843;52.020;5.670;2023-01-27T06:33:24;102479.25;;;11.23;65.28
69624;BME280;56843;52.020;5.670;2023-01-27T06:34:54;102487.53;;;11.26;65.32
69624;BME280;56843;52.020;5.670;2023-01-27T06:36:25;102492.06;;;11.26;65.04
69624;BME280;56843;52.020;5.670;2023-01-27T06:37:59;102491.56;;;11.24;65.05
69624;BME280;56843;52.020;5.670;2023-01-27T06:39:30;102492.63;;;11.23;65.25
69624;BME280;56843;52.020;5.670;2023-01-27T06:41:01;102493.72;;;11.22;64.93
69624;BME280;56843;52.020;5.670;2023-01-27T06:42:32;102502.00;;;11.20;65.05
69624;BME280;56843;52.020;5.670;2023-01-27T06:44:02;102504.97;;;11.19;64.93
69624;BME280;56843;52.020;5.670;2023-01-27T06:45:33;102501.81;;;11.17;64.80
69624;BME280;56843;52.020;5.670;2023-01-27T06:47:03;102512.78;;;11.15;64.50
69624;BME280;56843;52.020;5.670;2023-01-27T06:48:33;102505.03;;;11.14;64.46
69624;BME280;56843;52.020;5.670;2023-01-27T06:50:05;102501.84;;;11.12;64.50
69624;BME280;56843;52.020;5.670;2023-01-27T06:51:36;102514.44;;;11.11;64.76
69624;BME280;56843;52.020;5.670;2023-01-27T06:53:07;102501.34;;;11.09;64.19
69624;BME280;56843;52.020;5.670;2023-01-27T06:54:38;102500.03;;;11.07;64.14
69624;BME280;56843;52.020;5.670;2023-01-27T06:56:08;102504.59;;;11.06;64.20
69624;BME280;56843;52.020;5.670;2023-01-27T06:57:39;102500.31;;;11.05;63.96
69624;BME280;56843;52.020;5.670;2023-01-27T06:59:10;102501.97;;;11.01;63.61
69624;BME280;56843;52.020;5.670;2023-01-27T07:00:41;102494.25;;;11.00;63.90
69624;BME280;56843;52.020;5.670;2023-01-27T07:02:11;102496.13;;;10.99;63.92
69624;BME280;56843;52.020;5.670;2023-01-27T07:03:42;102495.31;;;10.99;64.02
69624;BME280;56843;52.020;5.670;2023-01-27T07:05:13;102497.19;;;10.98;63.71
69624;BME280;56843;52.020;5.670;2023-01-27T07:06:43;102498.28;;;10.97;63.64
69624;BME280;56843;52.020;5.670;2023-01-27T07:08:14;102501.50;;;10.94;63.89
69624;BME280;56843;52.020;5.670;2023-01-27T07:09:44;102497.22;;;10.93;63.91
69624;BME280;56843;52.020;5.670;2023-01-27T07:11:15;102501.00;;;10.92;63.81
69624;BME280;56843;52.020;5.670;2023-01-27T07:12:46;102507.16;;;10.93;63.41
69624;BME280;56843;52.020;5.670;2023-01-27T07:14:16;102504.75;;;10.91;63.63
69624;BME280;56843;52.020;5.670;2023-01-27T07:15:53;102510.09;;;10.91;63.52
69624;BME280;56843;52.020;5.670;2023-01-27T07:17:24;102503.44;;;10.89;63.48
69624;BME280;56843;52.020;5.670;2023-01-27T07:18:54;102501.56;;;10.89;63.45
69624;BME280;56843;52.020;5.670;2023-01-27T07:20:25;102505.84;;;10.90;63.37
69624;BME280;56843;52.020;5.670;2023-01-27T07:21:57;102502.06;;;10.91;63.55
69624;BME280;56843;52.020;5.670;2023-01-27T07:23:28;102513.25;;;10.93;63.45
69624;BME280;56843;52.020;5.670;2023-01-27T07:24:58;102512.19;;;10.94;63.56
69624;BME280;56843;52.020;5.670;2023-01-27T07:26:29;102506.56;;;10.96;63.19
69624;BME280;56843;52.020;5.670;2023-01-27T07:28:00;102512.72;;;10.96;63.22
69624;BME280;56843;52.020;5.670;2023-01-27T07:29:31;102514.59;;;10.96;62.90
69624;BME280;56843;52.020;5.670;2023-01-27T07:31:02;102513.50;;;10.97;63.13
69624;BME280;56843;52.020;5.670;2023-01-27T07:32:32;102510.84;;;10.97;63.37
69624;BME280;56843;52.020;5.670;2023-01-27T07:34:03;102507.38;;;10.96;63.34
69624;BME280;56843;52.020;5.670;2023-01-27T07:35:35;102508.69;;;10.99;63.46
69624;BME280;56843;52.020;5.670;2023-01-27T07:37:06;102511.34;;;10.99;63.47
69624;BME280;56843;52.020;5.670;2023-01-27T07:38:38;102503.84;;;11.01;63.15
69624;BME280;56843;52.020;5.670;2023-01-27T07:40:09;102515.34;;;11.01;63.15
69624;BME280;56843;52.020;5.670;2023-01-27T07:41:40;102515.34;;;11.01;63.32
69624;BME280;56843;52.020;5.670;2023-01-27T07:43:14;102516.91;;;11.02;63.27
69624;BME280;56843;52.020;5.670;2023-01-27T07:44:44;102513.19;;;11.03;63.50
69624;BME280;56843;52.020;5.670;2023-01-27T07:46:15;102513.97;;;11.04;63.37
69624;BME280;56843;52.020;5.670;2023-01-27T07:47:45;102520.91;;;11.05;63.51
69624;BME280;56843;52.020;5.670;2023-01-27T07:49:16;102519.84;;;11.06;63.38
69624;BME280;56843;52.020;5.670;2023-01-27T07:50:46;102510.22;;;11.05;63.32
69624;BME280;56843;52.020;5.670;2023-01-27T07:52:17;102522.50;;;11.06;63.27
69624;BME280;56843;52.020;5.670;2023-01-27T07:53:47;102528.38;;;11.08;63.51
69624;BME280;56843;52.020;5.670;2023-01-27T07:55:18;102529.19;;;11.08;63.30
69624;BME280;56843;52.020;5.670;2023-01-27T07:56:48;102529.19;;;11.08;63.25
69624;BME280;56843;52.020;5.670;2023-01-27T07:58:19;102536.09;;;11.09;63.47
69624;BME280;56843;52.020;5.670;2023-01-27T07:59:49;102535.28;;;11.09;63.25
69624;BME280;56843;52.020;5.670;2023-01-27T08:01:24;102533.44;;;11.09;63.19
69624;BME280;56843;52.020;5.670;2023-01-27T08:02:56;102544.94;;;11.10;63.43
69624;BME280;56843;52.020;5.670;2023-01-27T08:04:27;102535.88;;;11.06;63.16
69624;BME280;56843;52.020;5.670;2023-01-27T08:05:57;102545.72;;;11.11;63.38
69624;BME280;56843;52.020;5.670;2023-01-27T08:07:28;102544.94;;;11.10;63.27
69624;BME280;56843;52.020;5.670;2023-01-27T08:08:58;102556.44;;;11.11;63.17
69624;BME280;56843;52.020;5.670;2023-01-27T08:10:29;102551.06;;;11.11;63.42
69624;BME280;56843;52.020;5.670;2023-01-27T08:12:00;102546.53;;;11.11;63.38
69624;BME280;56843;52.020;5.670;2023-01-27T08:13:31;102553.47;;;11.12;63.19
69624;BME280;56843;52.020;5.670;2023-01-27T08:15:01;102554.56;;;11.11;63.07